sensor_id;sensor_type;location;lat;lon;timestamp;pressure;altitude;pressure_sealevel;temperature;humidity
35704;BME280;21820;51.112;13.762;2023-09-07T00:01:43;100160.66;;;23.21;57.78
35704;BME280;21820;51.112;13.762;2023-09-07T00:04:09;100152.09;;;23.19;57.89
35704;BME280;21820;51.112;13.762;2023-09-07T00:06:35;100154.84;;;23.17;57.38
35704;BME280;21820;51.112;13.762;2023-09-07T00:09:02;100155.69;;;23.18;58.12
35704;BME280;21820;51.112;13.762;2023-09-07T00:11:27;100145.75;;;23.12;57.83
35704;BME280;21820;51.112;13.762;2023-09-07T00:13:52;100162.56;;;23.19;57.79
35704;BME280;21820;51.112;13.762;2023-09-07T00:16:18;100143.50;;;23.07;58.57
35704;BME280;21820;51.112;13.762;2023-09-07T00:18:43;100160.94;;;23.18;58.27
35704;BME280;21820;51.112;13.762;2023-09-07T00:21:09;100151.66;;;23.14;58.09
35704;BME280;21820;51.112;13.762;2023-09-07T00:23:34;100157.63;;;23.16;58.25
35704;BME280;21820;51.112;13.762;2023-09-07T00:25:59;100161.91;;;23.17;58.32
35704;BME280;21820;51.112;13.762;2023-09-07T00:28:25;100158.44;;;23.16;58.78
35704;BME280;21820;51.112;13.762;2023-09-07T00:30:50;100168.66;;;23.19;58.24
35704;BME280;21820;51.112;13.762;2023-09-07T00:33:15;100168.81;;;23.18;57.79
35704;BME280;21820;51.112;13.762;2023-09-07T00:35:41;100164.53;;;23.17;58.54
35704;BME280;21820;51.112;13.762;2023-09-07T00:38:06;100172.28;;;23.18;57.92
35704;BME280;21820;51.112;13.762;2023-09-07T00:40:31;100167.03;;;23.18;57.55
35704;BME280;21820;51.112;13.762;2023-09-07T00:42:58;100164.53;;;23.17;58.15
35704;BME280;21820;51.112;13.762;2023-09-07T00:45:24;100169.50;;;23.20;57.63
35704;BME280;21820;51.112;13.762;2023-09-07T00:47:50;100169.66;;;23.18;57.93
35704;BME280;21820;51.112;13.762;2023-09-07T00:50:15;100167.81;;;23.19;57.44
35704;BME280;21820;51.112;13.762;2023-09-07T00:52:44;100172.41;;;23.17;59.60
35704;BME280;21820;51.112;13.762;2023-09-07T00:55:12;100160.09;;;23.17;57.72
35704;BME280;21820;51.112;13.762;2023-09-07T00:57:39;100163.41;;;23.19;60.43
35704;BME280;21820;51.112;13.762;2023-09-07T01:00:05;100163.56;;;23.18;57.73
35704;BME280;21820;51.112;13.762;2023-09-07T01:02:32;100140.31;;;23.04;57.64
35704;BME280;21820;51.112;13.762;2023-09-07T01:04:58;100138.53;;;23.04;57.07
35704;BME280;21820;51.112;13.762;2023-09-07T01:07:26;100160.25;;;23.16;57.86
35704;BME280;21820;51.112;13.762;2023-09-07T01:09:59;100152.66;;;23.13;58.71
35704;BME280;21820;51.112;13.762;2023-09-07T01:12:25;100154.84;;;23.17;57.61
35704;BME280;21820;51.112;13.762;2023-09-07T01:14:51;100156.78;;;23.15;57.57
35704;BME280;21820;51.112;13.762;2023-09-07T01:17:18;100158.72;;;23.13;57.85
35704;BME280;21820;51.112;13.762;2023-09-07T01:19:44;100150.16;;;23.11;57.76
35704;BME280;21820;51.112;13.762;2023-09-07T01:22:11;100148.91;;;23.15;57.73
35704;BME280;21820;51.112;13.762;2023-09-07T01:24:37;100154.28;;;23.14;57.72
35704;BME280;21820;51.112;13.762;2023-09-07T01:27:04;100155.69;;;23.18;60.38
35704;BME280;21820;51.112;13.762;2023-09-07T01:29:30;100149.75;;;23.16;57.09
35704;BME280;21820;51.112;13.762;2023-09-07T01:31:56;100152.50;;;23.14;57.84
35704;BME280;21820;51.112;13.762;2023-09-07T01:34:23;100148.38;;;23.12;57.60
35704;BME280;21820;51.112;13.762;2023-09-07T01:36:48;100147.41;;;23.13;57.25
35704;BME280;21820;51.112;13.762;2023-09-07T01:39:14;100145.06;;;23.10;57.78
35704;BME280;21820;51.112;13.762;2023-09-07T01:41:39;100137.72;;;23.04;56.83
35704;BME280;21820;51.112;13.762;2023-09-07T01:44:04;100151.94;;;23.11;56.87
35704;BME280;21820;51.112;13.762;2023-09-07T01:46:30;100144.78;;;23.13;57.40
35704;BME280;21820;51.112;13.762;2023-09-07T01:48:55;100155.41;;;23.11;57.67
35704;BME280;21820;51.112;13.762;2023-09-07T01:51:20;100156.25;;;23.12;56.72
35704;BME280;21820;51.112;13.762;2023-09-07T01:53:49;100154.56;;;23.11;58.40
35704;BME280;21820;51.112;13.762;2023-09-07T01:56:16;100152.09;;;23.09;58.15
35704;BME280;21820;51.112;13.762;2023-09-07T01:58:42;100149.31;;;23.11;57.35
35704;BME280;21820;51.112;13.762;2023-09-07T02:01:25;100151.00;;;23.12;59.20
35704;BME280;21820;51.112;13.762;2023-09-07T02:03:51;100147.53;;;23.11;57.41
35704;BME280;21820;51.112;13.762;2023-09-07T02:06:17;100154.56;;;23.11;57.36
35704;BME280;21820;51.112;13.762;2023-09-07T02:08:43;100133.44;;;23.03;57.92
35704;BME280;21820;51.112;13.762;2023-09-07T02:11:08;100158.16;;;23.10;57.80
35704;BME280;21820;51.112;13.762;2023-09-07T02:13:34;100145.19;;;23.08;57.30
35704;BME280;21820;51.112;13.762;2023-09-07T02:16:04;100137.19;;;23.10;59.21
35704;BME280;21820;51.112;13.762;2023-09-07T02:18:30;100147.94;;;23.07;57.51
35704;BME280;21820;51.112;13.762;2023-09-07T02:21:01;100147.69;;;23.10;58.72
35704;BME280;21820;51.112;13.762;2023-09-07T02:23:27;100144.34;;;23.08;57.64
35704;BME280;21820;51.112;13.762;2023-09-07T02:25:52;100143.50;;;23.07;57.95
35704;BME280;21820;51.112;13.762;2023-09-07T02:28:17;100147.94;;;23.07;57.42
35704;BME280;21820;51.112;13.762;2023-09-07T02:30:43;100145.19;;;23.08;56.97
35704;BME280;21820;51.112;13.762;2023-09-07T02:33:08;100150.56;;;23.07;57.08
35704;BME280;21820;51.112;13.762;2023-09-07T02:35:36;100145.19;;;23.08;58.58
35704;BME280;21820;51.112;13.762;2023-09-07T02:38:02;100138.28;;;23.07;57.69
35704;BME280;21820;51.112;13.762;2023-09-07T02:40:27;100140.09;;;23.07;57.32
35704;BME280;21820;51.112;13.762;2023-09-07T02:42:53;100144.50;;;23.06;58.04
35704;BME280;21820;51.112;13.762;2023-09-07T02:45:18;100145.19;;;23.08;57.21
35704;BME280;21820;51.112;13.762;2023-09-07T02:47:43;100147.94;;;23.07;56.70
35704;BME280;21820;51.112;13.762;2023-09-07T02:50:09;100141.03;;;23.06;57.25
35704;BME280;21820;51.112;13.762;2023-09-07T02:52:34;100146.28;;;23.06;57.48
35704;BME280;21820;51.112;13.762;2023-09-07T02:55:00;100140.22;;;23.05;56.77
35704;BME280;21820;51.112;13.762;2023-09-07T02:57:25;100141.88;;;23.06;56.84
35704;BME280;21820;51.112;13.762;2023-09-07T02:59:52;100142.00;;;23.05;57.28
35704;BME280;21820;51.112;13.762;2023-09-07T03:02:17;100146.84;;;23.09;59.86
35704;BME280;21820;51.112;13.762;2023-09-07T03:04:42;100155.13;;;23.05;56.90
35704;BME280;21820;51.112;13.762;2023-09-07T03:07:08;100156.75;;;23.06;57.00
35704;BME280;21820;51.112;13.762;2023-09-07T03:09:34;100153.34;;;23.05;56.85
35704;BME280;21820;51.112;13.762;2023-09-07T03:11:59;100126.66;;;22.91;57.24
35704;BME280;21820;51.112;13.762;2023-09-07T03:14:25;100150.00;;;23.03;57.00
35704;BME280;21820;51.112;13.762;2023-09-07T03:16:50;100152.63;;;23.03;57.33
35704;BME280;21820;51.112;13.762;2023-09-07T03:19:16;100146.56;;;23.03;56.83
35704;BME280;21820;51.112;13.762;2023-09-07T03:21:42;100144.06;;;23.01;57.06
35704;BME280;21820;51.112;13.762;2023-09-07T03:24:07;100143.78;;;23.04;56.87
35704;BME280;21820;51.112;13.762;2023-09-07T03:26:32;100147.38;;;23.03;56.70
35704;BME280;21820;51.112;13.762;2023-09-07T03:28:58;100145.72;;;23.02;56.83
35704;BME280;21820;51.112;13.762;2023-09-07T03:31:23;100142.94;;;23.04;56.69
35704;BME280;21820;51.112;13.762;2023-09-07T03:33:49;100141.31;;;23.03;56.91
35704;BME280;21820;51.112;13.762;2023-09-07T03:36:14;100140.47;;;23.02;57.17
35704;BME280;21820;51.112;13.762;2023-09-07T03:38:40;100140.31;;;23.04;56.77
35704;BME280;21820;51.112;13.762;2023-09-07T03:41:05;100140.47;;;23.02;56.69
35704;BME280;21820;51.112;13.762;2023-09-07T03:43:31;100120.59;;;22.90;56.92
35704;BME280;21820;51.112;13.762;2023-09-07T03:45:57;100147.53;;;23.02;56.57
35704;BME280;21820;51.112;13.762;2023-09-07T03:48:22;100123.34;;;22.89;56.38
35704;BME280;21820;51.112;13.762;2023-09-07T03:50:48;100155.41;;;23.02;56.83
35704;BME280;21820;51.112;13.762;2023-09-07T03:53:13;100158.97;;;23.01;57.87
35704;BME280;21820;51.112;13.762;2023-09-07T03:55:42;100159.09;;;22.99;58.21
35704;BME280;21820;51.112;13.762;2023-09-07T03:58:11;100155.66;;;22.99;58.15
35704;BME280;21820;51.112;13.762;2023-09-07T04:00:41;100154.00;;;22.98;58.17
35704;BME280;21820;51.112;13.762;2023-09-07T04:03:07;100148.75;;;22.98;56.48
35704;BME280;21820;51.112;13.762;2023-09-07T04:05:32;100152.06;;;23.00;56.31
35704;BME280;21820;51.112;13.762;2023-09-07T04:07:58;100154.84;;;22.98;56.18
35704;BME280;21820;51.112;13.762;2023-09-07T04:10:24;100154.69;;;23.00;55.88
35704;BME280;21820;51.112;13.762;2023-09-07T04:12:49;100160.06;;;22.98;57.40
35704;BME280;21820;51.112;13.762;2023-09-07T04:15:15;100156.63;;;22.98;56.67
35704;BME280;21820;51.112;13.762;2023-09-07T04:17:40;100158.16;;;23.00;56.62
35704;BME280;21820;51.112;13.762;2023-09-07T04:20:07;100141.81;;;22.87;56.65
35704;BME280;21820;51.112;13.762;2023-09-07T04:22:33;100156.63;;;22.98;56.84
35704;BME280;21820;51.112;13.762;2023-09-07T04:24:58;100165.31;;;22.98;56.04
35704;BME280;21820;51.112;13.762;2023-09-07T04:27:23;100159.25;;;22.98;55.90
35704;BME280;21820;51.112;13.762;2023-09-07T04:29:49;100155.91;;;22.96;56.60
35704;BME280;21820;51.112;13.762;2023-09-07T04:32:15;100154.97;;;22.97;56.27
35704;BME280;21820;51.112;13.762;2023-09-07T04:34:40;100162.84;;;22.97;56.16
35704;BME280;21820;51.112;13.762;2023-09-07T04:37:06;100166.28;;;22.97;55.88
35704;BME280;21820;51.112;13.762;2023-09-07T04:39:31;100159.25;;;22.98;56.18
35704;BME280;21820;51.112;13.762;2023-09-07T04:41:56;100163.66;;;22.97;56.26
35704;BME280;21820;51.112;13.762;2023-09-07T04:44:22;100165.59;;;22.95;56.04
35704;BME280;21820;51.112;13.762;2023-09-07T04:46:47;100141.28;;;22.84;56.14
35704;BME280;21820;51.112;13.762;2023-09-07T04:49:12;100166.41;;;22.96;56.51
35704;BME280;21820;51.112;13.762;2023-09-07T04:51:38;100168.34;;;22.94;55.85
35704;BME280;21820;51.112;13.762;2023-09-07T04:54:03;100168.34;;;22.94;56.21
35704;BME280;21820;51.112;13.762;2023-09-07T04:56:29;100172.63;;;22.95;57.25
35704;BME280;21820;51.112;13.762;2023-09-07T04:58:54;100166.69;;;22.93;56.31
35704;BME280;21820;51.112;13.762;2023-09-07T05:01:19;100134.63;;;22.80;56.59
35704;BME280;21820;51.112;13.762;2023-09-07T05:03:45;100163.22;;;22.92;56.82
35704;BME280;21820;51.112;13.762;2023-09-07T05:06:11;100173.72;;;22.92;56.64
35704;BME280;21820;51.112;13.762;2023-09-07T05:08:36;100163.34;;;22.91;55.72
35704;BME280;21820;51.112;13.762;2023-09-07T05:11:03;100162.41;;;22.92;56.20
35704;BME280;21820;51.112;13.762;2023-09-07T05:13:29;100166.69;;;22.93;55.88
35704;BME280;21820;51.112;13.762;2023-09-07T05:15:56;100173.59;;;22.94;56.01
35704;BME280;21820;51.112;13.762;2023-09-07T05:18:22;100168.47;;;22.92;56.11
35704;BME280;21820;51.112;13.762;2023-09-07T05:20:47;100168.59;;;22.91;56.55
35704;BME280;21820;51.112;13.762;2023-09-07T05:23:20;100170.28;;;22.92;55.72
35704;BME280;21820;51.112;13.762;2023-09-07T05:25:47;100179.09;;;22.91;56.82
35704;BME280;21820;51.112;13.762;2023-09-07T05:28:14;100177.44;;;22.90;56.50
35704;BME280;21820;51.112;13.762;2023-09-07T05:30:40;100188.63;;;22.92;57.70
35704;BME280;21820;51.112;13.762;2023-09-07T05:33:06;100189.56;;;22.91;56.29
35704;BME280;21820;51.112;13.762;2023-09-07T05:35:32;100189.56;;;22.91;56.36
35704;BME280;21820;51.112;13.762;2023-09-07T05:37:58;100162.06;;;22.76;56.64
35704;BME280;21820;51.112;13.762;2023-09-07T05:40:24;100189.56;;;22.91;56.22
35704;BME280;21820;51.112;13.762;2023-09-07T05:42:49;100188.63;;;22.92;56.43
35704;BME280;21820;51.112;13.762;2023-09-07T05:45:14;100200.06;;;22.91;56.41
35704;BME280;21820;51.112;13.762;2023-09-07T05:47:40;100203.38;;;22.93;56.69
35704;BME280;21820;51.112;13.762;2023-09-07T05:50:06;100196.63;;;22.90;57.16
35704;BME280;21820;51.112;13.762;2023-09-07T05:52:31;100203.66;;;22.90;57.08
35704;BME280;21820;51.112;13.762;2023-09-07T05:54:57;100201.03;;;22.90;57.21
35704;BME280;21820;51.112;13.762;2023-09-07T05:57:22;100197.44;;;22.91;56.50
35704;BME280;21820;51.112;13.762;2023-09-07T05:59:47;100203.66;;;22.90;57.32
35704;BME280;21820;51.112;13.762;2023-09-07T06:02:12;100201.03;;;22.90;57.32
35704;BME280;21820;51.112;13.762;2023-09-07T06:04:38;100202.00;;;22.89;57.05
35704;BME280;21820;51.112;13.762;2023-09-07T06:07:03;100197.00;;;22.86;57.01
35704;BME280;21820;51.112;13.762;2023-09-07T06:09:29;100196.78;;;22.89;57.24
35704;BME280;21820;51.112;13.762;2023-09-07T06:11:54;100201.88;;;22.90;56.59
35704;BME280;21820;51.112;13.762;2023-09-07T06:14:20;100200.19;;;22.89;57.12
35704;BME280;21820;51.112;13.762;2023-09-07T06:16:45;100204.50;;;22.90;56.82
35704;BME280;21820;51.112;13.762;2023-09-07T06:19:10;100199.63;;;22.86;57.51
35704;BME280;21820;51.112;13.762;2023-09-07T06:21:35;100201.19;;;22.88;56.68
35704;BME280;21820;51.112;13.762;2023-09-07T06:24:01;100204.63;;;22.89;57.05
35704;BME280;21820;51.112;13.762;2023-09-07T06:26:26;100196.06;;;22.87;57.59
35704;BME280;21820;51.112;13.762;2023-09-07T06:28:51;100210.81;;;22.88;57.40
35704;BME280;21820;51.112;13.762;2023-09-07T06:31:17;100202.97;;;22.88;57.01
35704;BME280;21820;51.112;13.762;2023-09-07T06:33:42;100210.81;;;22.88;57.65
35704;BME280;21820;51.112;13.762;2023-09-07T06:36:08;100216.91;;;22.88;57.67
35704;BME280;21820;51.112;13.762;2023-09-07T06:38:33;100217.75;;;22.89;57.39
35704;BME280;21820;51.112;13.762;2023-09-07T06:40:58;100213.31;;;22.89;57.54
35704;BME280;21820;51.112;13.762;2023-09-07T06:43:23;100216.06;;;22.88;57.30
35704;BME280;21820;51.112;13.762;2023-09-07T06:45:49;100216.78;;;22.90;58.14
35704;BME280;21820;51.112;13.762;2023-09-07T06:48:14;100214.16;;;22.90;57.87
35704;BME280;21820;51.112;13.762;2023-09-07T06:50:39;100211.78;;;22.87;58.18
35704;BME280;21820;51.112;13.762;2023-09-07T06:53:05;100213.31;;;22.89;58.37
35704;BME280;21820;51.112;13.762;2023-09-07T06:55:30;100213.31;;;22.89;58.01
35704;BME280;21820;51.112;13.762;2023-09-07T06:57:55;100216.91;;;22.88;58.12
35704;BME280;21820;51.112;13.762;2023-09-07T07:00:21;100217.75;;;22.89;58.36
35704;BME280;21820;51.112;13.762;2023-09-07T07:02:47;100206.13;;;22.82;58.30
35704;BME280;21820;51.112;13.762;2023-09-07T07:05:12;100217.75;;;22.89;58.59
35704;BME280;21820;51.112;13.762;2023-09-07T07:07:38;100214.41;;;22.87;58.04
35704;BME280;21820;51.112;13.762;2023-09-07T07:10:04;100216.94;;;22.98;57.99
35704;BME280;21820;51.112;13.762;2023-09-07T07:12:30;100220.97;;;23.02;58.54
35704;BME280;21820;51.112;13.762;2023-09-07T07:14:59;100222.75;;;23.01;58.33
35704;BME280;21820;51.112;13.762;2023-09-07T07:17:25;100217.78;;;23.08;57.95
35704;BME280;21820;51.112;13.762;2023-09-07T07:19:50;100222.19;;;23.07;57.73
35704;BME280;21820;51.112;13.762;2023-09-07T07:22:15;100223.03;;;23.08;58.37
35704;BME280;21820;51.112;13.762;2023-09-07T07:24:41;100213.66;;;23.05;57.96
35704;BME280;21820;51.112;13.762;2023-09-07T07:27:06;100229.13;;;23.08;58.12
35704;BME280;21820;51.112;13.762;2023-09-07T07:29:31;100231.34;;;23.13;57.64
35704;BME280;21820;51.112;13.762;2023-09-07T07:31:57;100202.16;;;22.97;57.73
35704;BME280;21820;51.112;13.762;2023-09-07T07:34:22;100227.19;;;23.10;57.93
35704;BME280;21820;51.112;13.762;2023-09-07T07:36:47;100234.94;;;23.12;58.15
35704;BME280;21820;51.112;13.762;2023-09-07T07:39:13;100234.22;;;23.10;58.20
35704;BME280;21820;51.112;13.762;2023-09-07T07:41:38;100233.53;;;23.08;58.12
35704;BME280;21820;51.112;13.762;2023-09-07T07:44:03;100208.78;;;22.91;58.62
35704;BME280;21820;51.112;13.762;2023-09-07T07:46:29;100229.94;;;23.09;58.18
35704;BME280;21820;51.112;13.762;2023-09-07T07:48:54;100202.16;;;22.97;57.83
35704;BME280;21820;51.112;13.762;2023-09-07T07:51:19;100235.19;;;23.09;58.03
35704;BME280;21820;51.112;13.762;2023-09-07T07:53:45;100227.44;;;23.07;58.05
35704;BME280;21820;51.112;13.762;2023-09-07T07:56:17;100221.53;;;23.05;59.22
35704;BME280;21820;51.112;13.762;2023-09-07T07:58:42;100230.78;;;23.09;57.72
35704;BME280;21820;51.112;13.762;2023-09-07T08:01:15;100229.13;;;23.08;59.17
35704;BME280;21820;51.112;13.762;2023-09-07T08:03:41;100230.06;;;23.07;58.45
35704;BME280;21820;51.112;13.762;2023-09-07T08:06:07;100227.44;;;23.07;58.90
35704;BME280;21820;51.112;13.762;2023-09-07T08:08:32;100225.13;;;23.14;57.77
35704;BME280;21820;51.112;13.762;2023-09-07T08:10:57;100226.94;;;23.13;57.43
35704;BME280;21820;51.112;13.762;2023-09-07T08:13:25;100205.22;;;23.02;58.01
35704;BME280;21820;51.112;13.762;2023-09-07T08:15:50;100220.84;;;23.13;58.15
35704;BME280;21820;51.112;13.762;2023-09-07T08:18:16;100219.88;;;23.14;58.43
35704;BME280;21820;51.112;13.762;2023-09-07T08:20:41;100220.84;;;23.13;57.66
35704;BME280;21820;51.112;13.762;2023-09-07T08:23:07;100216.31;;;23.15;57.74
35704;BME280;21820;51.112;13.762;2023-09-07T08:25:34;100219.88;;;23.14;57.77
35704;BME280;21820;51.112;13.762;2023-09-07T08:28:00;100217.66;;;23.09;58.52
35704;BME280;21820;51.112;13.762;2023-09-07T08:30:28;100192.63;;;22.96;57.28
35704;BME280;21820;51.112;13.762;2023-09-07T08:32:54;100209.25;;;23.15;58.12
35704;BME280;21820;51.112;13.762;2023-09-07T08:35:20;100213.69;;;23.15;58.15
35704;BME280;21820;51.112;13.762;2023-09-07T08:37:45;100216.44;;;23.13;57.53
35704;BME280;21820;51.112;13.762;2023-09-07T08:40:11;100212.00;;;23.14;57.91
35704;BME280;21820;51.112;13.762;2023-09-07T08:42:36;100205.81;;;23.15;57.73
35704;BME280;21820;51.112;13.762;2023-09-07T08:45:02;100203.88;;;23.17;57.57
35704;BME280;21820;51.112;13.762;2023-09-07T08:47:33;100203.19;;;23.15;57.74
35704;BME280;21820;51.112;13.762;2023-09-07T08:49:58;100215.03;;;23.19;57.50
35704;BME280;21820;51.112;13.762;2023-09-07T08:52:24;100217.28;;;23.23;58.15
35704;BME280;21820;51.112;13.762;2023-09-07T08:54:50;100211.91;;;23.25;57.41
35704;BME280;21820;51.112;13.762;2023-09-07T08:57:18;100210.22;;;23.24;57.51
35704;BME280;21820;51.112;13.762;2023-09-07T08:59:43;100211.06;;;23.24;59.44
35704;BME280;21820;51.112;13.762;2023-09-07T09:02:09;100216.44;;;23.23;57.17
35704;BME280;21820;51.112;13.762;2023-09-07T09:04:36;100214.81;;;23.22;57.75
35704;BME280;21820;51.112;13.762;2023-09-07T09:07:02;100211.75;;;23.17;57.74
35704;BME280;21820;51.112;13.762;2023-09-07T09:09:29;100218.38;;;23.21;57.57
35704;BME280;21820;51.112;13.762;2023-09-07T09:11:54;100205.41;;;23.19;57.36
35704;BME280;21820;51.112;13.762;2023-09-07T09:14:20;100183.69;;;23.08;57.66
35704;BME280;21820;51.112;13.762;2023-09-07T09:16:51;100214.09;;;23.20;58.26
35704;BME280;21820;51.112;13.762;2023-09-07T09:19:17;100210.38;;;23.22;57.48
35704;BME280;21820;51.112;13.762;2023-09-07T09:21:44;100207.19;;;23.19;57.38
35704;BME280;21820;51.112;13.762;2023-09-07T09:24:11;100214.81;;;23.22;57.31
35704;BME280;21820;51.112;13.762;2023-09-07T09:26:37;100209.81;;;23.19;57.52
35704;BME280;21820;51.112;13.762;2023-09-07T09:29:03;100219.63;;;23.17;58.12
35704;BME280;21820;51.112;13.762;2023-09-07T09:31:29;100215.88;;;23.19;57.87
35704;BME280;21820;51.112;13.762;2023-09-07T09:33:55;100217.66;;;23.19;58.97
35704;BME280;21820;51.112;13.762;2023-09-07T09:36:21;100208.16;;;23.18;58.02
35704;BME280;21820;51.112;13.762;2023-09-07T09:38:51;100205.66;;;23.16;58.56
35704;BME280;21820;51.112;13.762;2023-09-07T09:41:18;100203.59;;;23.20;57.70
35704;BME280;21820;51.112;13.762;2023-09-07T09:43:45;100197.38;;;23.21;57.65
35704;BME280;21820;51.112;13.762;2023-09-07T09:46:14;100204.56;;;23.19;57.73
35704;BME280;21820;51.112;13.762;2023-09-07T09:48:41;100199.06;;;23.22;57.24
35704;BME280;21820;51.112;13.762;2023-09-07T09:51:07;100203.47;;;23.21;57.54
35704;BME280;21820;51.112;13.762;2023-09-07T09:53:32;100190.19;;;23.13;57.61
35704;BME280;21820;51.112;13.762;2023-09-07T09:55:58;100204.31;;;23.22;58.12
35704;BME280;21820;51.112;13.762;2023-09-07T09:58:23;100200.16;;;23.19;57.74
35704;BME280;21820;51.112;13.762;2023-09-07T10:00:56;100203.47;;;23.21;59.36
35704;BME280;21820;51.112;13.762;2023-09-07T10:03:32;100199.72;;;23.24;58.51
35704;BME280;21820;51.112;13.762;2023-09-07T10:06:28;100200.44;;;23.26;58.89
35704;BME280;21820;51.112;13.762;2023-09-07T10:09:06;100207.19;;;23.19;59.21
35704;BME280;21820;51.112;13.762;2023-09-07T10:11:34;100176.09;;;23.05;57.64
35704;BME280;21820;51.112;13.762;2023-09-07T10:14:01;100199.31;;;23.19;58.00
35704;BME280;21820;51.112;13.762;2023-09-07T10:16:28;100186.88;;;23.21;57.28
35704;BME280;21820;51.112;13.762;2023-09-07T10:18:54;100199.06;;;23.22;57.50
35704;BME280;21820;51.112;13.762;2023-09-07T10:21:23;100182.47;;;23.21;57.41
35704;BME280;21820;51.112;13.762;2023-09-07T10:23:51;100190.22;;;23.23;57.69
35704;BME280;21820;51.112;13.762;2023-09-07T10:26:18;100176.53;;;23.10;57.53
35704;BME280;21820;51.112;13.762;2023-09-07T10:28:46;100188.56;;;23.22;57.36
35704;BME280;21820;51.112;13.762;2023-09-07T10:31:19;100191.84;;;23.24;58.65
35704;BME280;21820;51.112;13.762;2023-09-07T10:33:45;100191.84;;;23.24;57.36
35704;BME280;21820;51.112;13.762;2023-09-07T10:36:27;100182.94;;;23.27;58.61
35704;BME280;21820;51.112;13.762;2023-09-07T10:38:55;100182.22;;;23.24;57.65
35704;BME280;21820;51.112;13.762;2023-09-07T10:41:21;100180.00;;;23.20;57.36
35704;BME280;21820;51.112;13.762;2023-09-07T10:43:51;100170.88;;;23.24;58.14
35704;BME280;21820;51.112;13.762;2023-09-07T10:46:21;100168.00;;;23.27;58.22
35704;BME280;21820;51.112;13.762;2023-09-07T10:48:51;100177.69;;;23.27;58.22
35704;BME280;21820;51.112;13.762;2023-09-07T10:51:18;100152.38;;;23.16;57.89
35704;BME280;21820;51.112;13.762;2023-09-07T10:53:43;100169.94;;;23.25;58.71
35704;BME280;21820;51.112;13.762;2023-09-07T10:56:09;100165.38;;;23.27;56.90
35704;BME280;21820;51.112;13.762;2023-09-07T10:58:36;100166.75;;;23.21;58.07
35704;BME280;21820;51.112;13.762;2023-09-07T11:01:06;100162.75;;;23.27;56.96
35704;BME280;21820;51.112;13.762;2023-09-07T11:03:31;100160.38;;;23.24;57.25
35704;BME280;21820;51.112;13.762;2023-09-07T11:06:09;100168.38;;;23.22;57.68
35704;BME280;21820;51.112;13.762;2023-09-07T11:08:35;100158.47;;;23.26;57.36
35704;BME280;21820;51.112;13.762;2023-09-07T11:11:02;100156.09;;;23.23;57.93
35704;BME280;21820;51.112;13.762;2023-09-07T11:13:28;100161.06;;;23.26;58.39
35704;BME280;21820;51.112;13.762;2023-09-07T11:15:57;100156.81;;;23.25;57.46
35704;BME280;21820;51.112;13.762;2023-09-07T11:18:23;100162.06;;;23.25;57.38
35704;BME280;21820;51.112;13.762;2023-09-07T11:20:50;100163.97;;;23.23;57.90
35704;BME280;21820;51.112;13.762;2023-09-07T11:23:19;100142.84;;;23.15;58.06
35704;BME280;21820;51.112;13.762;2023-09-07T11:25:47;100160.66;;;23.21;57.67
35704;BME280;21820;51.112;13.762;2023-09-07T11:28:15;100137.31;;;23.18;57.37
35704;BME280;21820;51.112;13.762;2023-09-07T11:30:52;100151.84;;;23.22;58.44
35704;BME280;21820;51.112;13.762;2023-09-07T11:33:18;100151.84;;;23.22;57.35
35704;BME280;21820;51.112;13.762;2023-09-07T11:35:44;100149.22;;;23.22;57.00
35704;BME280;21820;51.112;13.762;2023-09-07T11:38:12;100149.88;;;23.24;58.29
35704;BME280;21820;51.112;13.762;2023-09-07T11:40:38;100156.41;;;23.30;56.87
35704;BME280;21820;51.112;13.762;2023-09-07T11:43:04;100142.16;;;23.22;57.66
35704;BME280;21820;51.112;13.762;2023-09-07T11:45:29;100141.78;;;23.27;57.94
35704;BME280;21820;51.112;13.762;2023-09-07T11:47:55;100147.00;;;23.27;56.93
35704;BME280;21820;51.112;13.762;2023-09-07T11:50:24;100130.44;;;23.17;57.81
35704;BME280;21820;51.112;13.762;2023-09-07T11:52:55;100139.84;;;23.29;57.30
35704;BME280;21820;51.112;13.762;2023-09-07T11:55:21;100149.41;;;23.30;56.76
35704;BME280;21820;51.112;13.762;2023-09-07T11:57:47;100143.72;;;23.35;56.96
35704;BME280;21820;51.112;13.762;2023-09-07T12:00:12;100149.53;;;23.29;56.68
35704;BME280;21820;51.112;13.762;2023-09-07T12:02:39;100144.63;;;23.24;57.63
35704;BME280;21820;51.112;13.762;2023-09-07T12:05:05;100123.78;;;23.13;56.90
35704;BME280;21820;51.112;13.762;2023-09-07T12:07:32;100144.16;;;23.30;57.01
35704;BME280;21820;51.112;13.762;2023-09-07T12:09:58;100125.84;;;23.19;57.35
35704;BME280;21820;51.112;13.762;2023-09-07T12:12:23;100128.91;;;23.24;57.54
35704;BME280;21820;51.112;13.762;2023-09-07T12:14:49;100127.28;;;23.33;57.14
35704;BME280;21820;51.112;13.762;2023-09-07T12:17:14;100124.53;;;23.34;56.65
35704;BME280;21820;51.112;13.762;2023-09-07T12:19:39;100126.72;;;23.29;56.75
35704;BME280;21820;51.112;13.762;2023-09-07T12:22:07;100102.53;;;23.16;56.74
35704;BME280;21820;51.112;13.762;2023-09-07T12:24:33;100119.84;;;23.28;57.14
35704;BME280;21820;51.112;13.762;2023-09-07T12:26:58;100120.09;;;23.25;57.26
35704;BME280;21820;51.112;13.762;2023-09-07T12:29:25;100110.66;;;23.22;57.80
35704;BME280;21820;51.112;13.762;2023-09-07T12:31:50;100114.97;;;23.23;57.29
35704;BME280;21820;51.112;13.762;2023-09-07T12:34:15;100103.50;;;23.24;56.81
35704;BME280;21820;51.112;13.762;2023-09-07T12:36:41;100099.91;;;23.25;56.84